createdAt,value
2023-03-26T00:01:22.406Z,97020.03
2023-03-26T00:03:51.588Z,97014.78
2023-03-26T00:06:21.635Z,97007.44
2023-03-26T00:08:50.875Z,97013.63
2023-03-26T00:11:22.706Z,97015.09
2023-03-26T00:13:51.604Z,97019.69
2023-03-26T00:16:20.229Z,97021.84
2023-03-26T00:18:47.962Z,97023.41
2023-03-26T00:21:18.679Z,97020.63
2023-03-26T00:23:46.981Z,97014.34
2023-03-26T00:26:15.194Z,97011.00
2023-03-26T00:28:44.346Z,97005.34
2023-03-26T00:31:13.713Z,97009.56
2023-03-26T00:33:41.973Z,97024.47
2023-03-26T00:36:13.223Z,97025.22
2023-03-26T00:38:41.784Z,97044.22
2023-03-26T00:41:11.492Z,97048.28
2023-03-26T00:43:39.004Z,97035.84
2023-03-26T00:46:07.954Z,97014.50
2023-03-26T00:48:44.389Z,97017.16
2023-03-26T00:51:14.706Z,97017.91
2023-03-26T00:53:43.009Z,97014.31
2023-03-26T00:56:11.214Z,97002.41
2023-03-26T00:58:39.693Z,97013.25
2023-03-26T01:01:11.744Z,97012.00
2023-03-26T01:03:40.081Z,97022.81
2023-03-26T01:06:11.710Z,97010.31
2023-03-26T01:08:42.853Z,96995.63
2023-03-26T01:11:18.032Z,96982.78
2023-03-26T01:13:49.978Z,96988.84
2023-03-26T01:16:26.507Z,96975.00
2023-03-26T01:18:55.112Z,96956.28
2023-03-26T01:21:26.053Z,96963.31
2023-03-26T01:23:59.936Z,96950.28
2023-03-26T01:26:42.819Z,96928.13
2023-03-26T01:29:21.078Z,96908.06
2023-03-26T01:32:00.670Z,96914.66
2023-03-26T01:34:43.506Z,96915.28
2023-03-26T01:37:23.383Z,96918.69
2023-03-26T01:39:57.482Z,96919.47
2023-03-26T01:42:34.374Z,96920.47
2023-03-26T01:45:11.268Z,96916.28
2023-03-26T01:47:42.091Z,96905.59
2023-03-26T01:50:10.205Z,96905.59
2023-03-26T01:52:38.252Z,96907.50
2023-03-26T01:55:09.717Z,96883.41
2023-03-26T01:57:50.072Z,96874.94
2023-03-26T02:00:26.425Z,96873.94
2023-03-26T02:03:14.697Z,96869.97
2023-03-26T02:05:52.661Z,96864.22
2023-03-26T02:08:24.677Z,96865.81
2023-03-26T02:10:59.417Z,96870.94
2023-03-26T02:13:27.758Z,96853.47
2023-03-26T02:15:57.220Z,96857.88
2023-03-26T02:18:25.487Z,96862.50
2023-03-26T02:20:53.068Z,96860.19
2023-03-26T02:23:20.836Z,96879.19
2023-03-26T02:25:48.423Z,96864.03
2023-03-26T02:28:17.347Z,96851.00
2023-03-26T02:30:44.883Z,96852.16
2023-03-26T02:33:12.617Z,96845.19
2023-03-26T02:35:40.281Z,96845.81
2023-03-26T02:38:07.974Z,96825.59
2023-03-26T02:40:35.497Z,96816.97
2023-03-26T02:43:03.014Z,96816.06
2023-03-26T02:45:31.999Z,96805.44
2023-03-26T02:47:59.700Z,96798.28
2023-03-26T02:50:27.268Z,96797.13
2023-03-26T02:52:54.838Z,96794.06
2023-03-26T02:55:22.379Z,96787.59
2023-03-26T02:57:49.927Z,96787.59
2023-03-26T03:00:17.707Z,96789.84
2023-03-26T03:02:46.679Z,96788.38
2023-03-26T03:05:14.652Z,96775.72
2023-03-26T03:07:42.289Z,96760.47
2023-03-26T03:10:10.794Z,96756.28
2023-03-26T03:12:38.306Z,96755.88
2023-03-26T03:15:06.811Z,96750.53
2023-03-26T03:17:34.510Z,96754.72
2023-03-26T03:20:03.941Z,96742.13
2023-03-26T03:22:31.629Z,96744.75
2023-03-26T03:24:59.197Z,96731.41
2023-03-26T03:27:27.966Z,96725.66
2023-03-26T03:29:55.559Z,96722.63
2023-03-26T03:32:23.448Z,96722.25
2023-03-26T03:34:51.597Z,96723.03
2023-03-26T03:37:20.944Z,96719.22
2023-03-26T03:39:48.662Z,96724.94
2023-03-26T03:42:16.197Z,96715.00
2023-03-26T03:44:44.094Z,96709.63
2023-03-26T03:47:11.666Z,96710.38
2023-03-26T03:49:39.229Z,96708.47
2023-03-26T03:52:06.903Z,96699.72
2023-03-26T03:54:35.814Z,96705.50
2023-03-26T03:57:03.559Z,96690.22
2023-03-26T03:59:31.401Z,96694.41
2023-03-26T04:01:59.051Z,96692.94
2023-03-26T04:04:26.670Z,96692.50
2023-03-26T04:06:54.237Z,96686.41
2023-03-26T04:09:21.768Z,96673.50
2023-03-26T04:11:50.686Z,96674.25
2023-03-26T04:14:18.255Z,96681.88
2023-03-26T04:16:45.823Z,96679.59
2023-03-26T04:19:13.332Z,96671.56
2023-03-26T04:21:41.134Z,96671.94
2023-03-26T04:24:09.511Z,96671.16
2023-03-26T04:26:37.144Z,96658.22
2023-03-26T04:29:08.450Z,96657.81
2023-03-26T04:31:36.048Z,96656.69
2023-03-26T04:34:09.014Z,96663.16
2023-03-26T04:36:36.642Z,96666.59
2023-03-26T04:39:04.320Z,96666.97
2023-03-26T04:41:31.924Z,96667.75
2023-03-26T04:43:59.488Z,96656.31
2023-03-26T04:46:29.026Z,96658.91
2023-03-26T04:48:56.594Z,96643.69
2023-03-26T04:51:27.373Z,96664.97
2023-03-26T04:53:58.001Z,96671.69
2023-03-26T04:56:39.561Z,96683.84
2023-03-26T04:59:13.579Z,96681.16
2023-03-26T05:01:42.882Z,96675.09
2023-03-26T05:04:10.898Z,96672.44
2023-03-26T05:06:38.877Z,96673.09
2023-03-26T05:09:06.420Z,96679.91
2023-03-26T05:11:34.041Z,96684.44
2023-03-26T05:14:01.584Z,96686.34
2023-03-26T05:16:30.497Z,96688.25
2023-03-26T05:18:59.679Z,96689.41
2023-03-26T05:21:27.251Z,96675.09
2023-03-26T05:23:54.951Z,96680.06
2023-03-26T05:26:22.502Z,96667.09
2023-03-26T05:28:50.305Z,96647.69
2023-03-26T05:31:21.211Z,96635.56
2023-03-26T05:33:49.587Z,96625.53
2023-03-26T05:36:19.008Z,96631.25
2023-03-26T05:38:46.625Z,96645.09
2023-03-26T05:41:14.281Z,96645.72
2023-03-26T05:43:41.971Z,96647.66
2023-03-26T05:46:09.630Z,96630.81
2023-03-26T05:48:37.834Z,96633.94
2023-03-26T05:51:06.160Z,96642.34
2023-03-26T05:53:35.343Z,96638.06
2023-03-26T05:56:03.192Z,96641.94
2023-03-26T05:58:35.047Z,96646.84
2023-03-26T06:01:05.519Z,96648.31
2023-03-26T06:03:34.076Z,96657.13
2023-03-26T06:06:01.809Z,96676.63
2023-03-26T06:08:29.745Z,96666.03
2023-03-26T06:11:04.107Z,96680.66
2023-03-26T06:13:31.650Z,96681.38
2023-03-26T06:15:59.938Z,96686.09
2023-03-26T06:18:27.601Z,96699.22
2023-03-26T06:20:55.358Z,96699.94
2023-03-26T06:23:23.214Z,96702.63
2023-03-26T06:25:51.000Z,96689.94
2023-03-26T06:28:19.972Z,96681.44
2023-03-26T06:30:48.495Z,96667.97
2023-03-26T06:33:16.109Z,96669.06
2023-03-26T06:35:43.857Z,96670.31
2023-03-26T06:38:11.924Z,96673.66
2023-03-26T06:40:39.677Z,96678.56
2023-03-26T06:43:09.976Z,96665.97
2023-03-26T06:45:39.897Z,96665.84
2023-03-26T06:48:07.694Z,96654.25
2023-03-26T06:50:35.598Z,96652.28
2023-03-26T06:53:03.141Z,96641.19
2023-03-26T06:55:30.732Z,96638.06
2023-03-26T06:57:58.276Z,96642.09
2023-03-26T07:00:25.923Z,96630.25
2023-03-26T07:02:54.941Z,96631.91
2023-03-26T07:05:22.847Z,96637.59
2023-03-26T07:07:50.659Z,96636.06
2023-03-26T07:10:18.321Z,96630.75
2023-03-26T07:12:46.067Z,96639.88
2023-03-26T07:15:13.638Z,96623.47
2023-03-26T07:17:41.295Z,96628.06
2023-03-26T07:20:11.790Z,96625.41
2023-03-26T07:22:40.070Z,96616.63
2023-03-26T07:25:09.263Z,96617.78
2023-03-26T07:27:52.590Z,96599.88
2023-03-26T07:30:30.642Z,96601.00
2023-03-26T07:33:03.820Z,96600.94
2023-03-26T07:35:41.578Z,96608.22
2023-03-26T07:38:29.772Z,96601.78
2023-03-26T07:41:08.554Z,96597.19
2023-03-26T07:43:59.672Z,96603.06
2023-03-26T07:46:29.721Z,96606.31
2023-03-26T07:48:58.429Z,96630.31
2023-03-26T07:51:29.741Z,96642.75
2023-03-26T07:53:58.047Z,96652.50
2023-03-26T07:56:34.589Z,96658.97
2023-03-26T07:59:16.658Z,96662.81
2023-03-26T08:01:58.448Z,96654.78
2023-03-26T08:04:52.781Z,96647.56
2023-03-26T08:07:36.480Z,96614.84
2023-03-26T08:10:16.188Z,96600.66
2023-03-26T08:12:55.352Z,96587.84
2023-03-26T08:15:30.880Z,96613.13
2023-03-26T08:18:13.564Z,96621.59
2023-03-26T08:20:47.750Z,96628.47
2023-03-26T08:23:27.683Z,96625.41
2023-03-26T08:26:04.000Z,96614.72
2023-03-26T08:28:44.036Z,96584.53
2023-03-26T08:31:15.578Z,96623.13
2023-03-26T08:33:43.725Z,96628.47
2023-03-26T08:36:11.343Z,96642.22
2023-03-26T08:38:40.329Z,96635.72
2023-03-26T08:41:50.937Z,96620.06
2023-03-26T08:44:50.770Z,96618.94
2023-03-26T08:47:45.025Z,96627.31
2023-03-26T08:50:48.122Z,96613.97
2023-03-26T08:53:45.098Z,96624.63
2023-03-26T08:56:24.022Z,96626.19
2023-03-26T08:59:37.528Z,96620.84
2023-03-26T09:02:46.009Z,96623.88
2023-03-26T09:05:47.454Z,96631.53
2023-03-26T09:09:19.006Z,96617.78
2023-03-26T09:12:14.822Z,96623.88
2023-03-26T09:15:21.510Z,96618.94
2023-03-26T09:18:19.302Z,96609.78
2023-03-26T09:21:18.389Z,96609.00
2023-03-26T09:24:29.892Z,96624.94
2023-03-26T09:27:15.697Z,96625.34
2023-03-26T09:30:20.143Z,96612.81
2023-03-26T09:33:18.722Z,96612.81
2023-03-26T09:35:58.623Z,96606.72
2023-03-26T09:38:44.053Z,96605.94
2023-03-26T09:41:22.054Z,96605.19
2023-03-26T09:44:25.646Z,96591.88
2023-03-26T09:47:18.516Z,96576.59
2023-03-26T09:50:00.067Z,96571.66
2023-03-26T09:52:57.335Z,96568.59
2023-03-26T09:55:39.072Z,96572.81
2023-03-26T09:58:41.724Z,96577.00
2023-03-26T10:01:19.437Z,96591.84
2023-03-26T10:04:04.903Z,96588.75
2023-03-26T10:06:49.620Z,96611.06
2023-03-26T10:09:41.332Z,96615.03
2023-03-26T10:12:28.130Z,96599.06
2023-03-26T10:15:13.278Z,96602.47
2023-03-26T10:18:00.509Z,96605.94
2023-03-26T10:20:42.804Z,96596.84
2023-03-26T10:23:46.075Z,96610.97
2023-03-26T10:26:38.062Z,96597.59
2023-03-26T10:29:40.737Z,96608.47
2023-03-26T10:32:25.577Z,96626.66
2023-03-26T10:35:15.770Z,96629.19
2023-03-26T10:38:00.969Z,96631.94
2023-03-26T10:40:37.718Z,96610.56
2023-03-26T10:43:27.935Z,96627.50
2023-03-26T10:46:18.425Z,96621.47
2023-03-26T10:49:16.908Z,96625.38
2023-03-26T10:51:48.195Z,96618.06
2023-03-26T10:54:29.153Z,96615.47
2023-03-26T10:56:59.124Z,96596.84
2023-03-26T10:59:27.228Z,96602.91
2023-03-26T11:02:17.040Z,96591.81
2023-03-26T11:04:55.767Z,96581.16
2023-03-26T11:07:35.157Z,96570.13
2023-03-26T11:10:10.185Z,96561.75
2023-03-26T11:12:47.471Z,96565.13
2023-03-26T11:15:25.392Z,96577.38
2023-03-26T11:18:05.487Z,96583.47
2023-03-26T11:20:43.618Z,96593.41
2023-03-26T11:23:34.931Z,96602.53
2023-03-26T11:26:12.456Z,96624.03
2023-03-26T11:29:30.851Z,96586.66
2023-03-26T11:32:05.314Z,96578.50
2023-03-26T11:34:38.376Z,96602.03
2023-03-26T11:37:17.421Z,96604.56
2023-03-26T11:39:51.101Z,96612.25
2023-03-26T11:42:23.625Z,96605.44
2023-03-26T11:44:55.916Z,96579.34
2023-03-26T11:47:33.330Z,96576.22
2023-03-26T11:50:05.940Z,96568.31
2023-03-26T11:52:35.546Z,96547.47
2023-03-26T11:55:03.260Z,96522.88
2023-03-26T11:57:36.067Z,96506.63
2023-03-26T12:00:10.250Z,96504.66
2023-03-26T12:02:40.302Z,96503.25
2023-03-26T12:05:15.188Z,96492.63
2023-03-26T12:07:49.814Z,96485.03
2023-03-26T12:10:36.253Z,96464.53
2023-03-26T12:13:27.878Z,96454.25
2023-03-26T12:15:58.718Z,96475.66
2023-03-26T12:18:28.125Z,96491.75
2023-03-26T12:21:04.769Z,96509.69
2023-03-26T12:23:41.443Z,96505.63
2023-03-26T12:26:16.300Z,96504.22
2023-03-26T12:28:46.314Z,96485.91
2023-03-26T12:31:15.650Z,96461.56
2023-03-26T12:33:44.878Z,96445.03
2023-03-26T12:36:20.462Z,96440.19
2023-03-26T12:39:17.147Z,96437.13
2023-03-26T12:44:50.275Z,96444.75
2023-03-26T12:44:56.211Z,96445.88
2023-03-26T12:47:59.881Z,96479.06
2023-03-26T12:50:14.386Z,96506.47
2023-03-26T12:53:00.537Z,96510.63
2023-03-26T12:55:42.296Z,96521.66
2023-03-26T12:58:32.501Z,96513.16
2023-03-26T13:01:10.013Z,96540.13
2023-03-26T13:03:58.728Z,96602.09
2023-03-26T13:06:58.866Z,96607.59
2023-03-26T13:09:53.363Z,96609.81
2023-03-26T13:12:37.867Z,96581.06
2023-03-26T13:15:25.222Z,96549.94
2023-03-26T13:18:11.608Z,96506.88
2023-03-26T13:20:52.440Z,96521.97
2023-03-26T13:23:34.037Z,96539.47
2023-03-26T13:26:14.047Z,96540.47
2023-03-26T13:28:55.769Z,96541.75
2023-03-26T13:31:31.063Z,96550.03
2023-03-26T13:34:10.530Z,96543.16
2023-03-26T13:36:48.479Z,96532.81
2023-03-26T13:39:29.568Z,96551.34
2023-03-26T13:42:15.289Z,96558.03
2023-03-26T13:45:04.878Z,96551.09
2023-03-26T13:47:38.887Z,96533.88
2023-03-26T13:50:19.194Z,96537.09
2023-03-26T13:52:52.819Z,96529.91
2023-03-26T13:55:28.526Z,96524.19
2023-03-26T13:58:03.343Z,96530.34
2023-03-26T14:00:49.883Z,96542.91
2023-03-26T14:03:27.383Z,96535.53
2023-03-26T14:06:00.443Z,96534.22
2023-03-26T14:08:35.899Z,96515.66
2023-03-26T14:11:11.175Z,96526.69
2023-03-26T14:13:47.980Z,96532.00
2023-03-26T14:16:23.551Z,96542.47
2023-03-26T14:19:01.245Z,96551.97
2023-03-26T14:21:53.257Z,96561.03
2023-03-26T14:24:45.863Z,96560.00
2023-03-26T14:27:37.482Z,96561.94
2023-03-26T14:30:37.248Z,96560.53
2023-03-26T14:33:36.905Z,96557.41
2023-03-26T14:36:19.007Z,96563.03
2023-03-26T14:39:12.755Z,96562.41
2023-03-26T14:41:50.013Z,96555.50
2023-03-26T14:44:48.502Z,96550.91
2023-03-26T14:47:19.031Z,96556.88
2023-03-26T14:50:24.163Z,96558.28
2023-03-26T14:53:01.454Z,96556.66
2023-03-26T14:56:05.351Z,96553.00
2023-03-26T14:59:01.728Z,96554.47
2023-03-26T15:02:07.741Z,96545.22
2023-03-26T15:05:19.825Z,96534.16
2023-03-26T15:08:41.342Z,96538.19
2023-03-26T15:11:24.633Z,96534.81
2023-03-26T15:14:09.442Z,96546.50
2023-03-26T15:17:23.153Z,96540.72
2023-03-26T15:20:32.744Z,96544.22
2023-03-26T15:23:48.063Z,96535.75
2023-03-26T15:26:50.558Z,96523.44
2023-03-26T15:29:59.362Z,96523.34
2023-03-26T15:33:05.265Z,96519.66
2023-03-26T15:36:10.826Z,96517.63
2023-03-26T15:39:16.927Z,96517.63
2023-03-26T15:41:55.497Z,96507.94
2023-03-26T15:44:53.113Z,96508.22
2023-03-26T15:48:03.439Z,96497.88
2023-03-26T15:50:59.972Z,96490.94
2023-03-26T15:53:39.983Z,96491.19
2023-03-26T15:56:45.842Z,96482.50
2023-03-26T15:59:42.739Z,96490.31
2023-03-26T16:02:27.151Z,96479.78
2023-03-26T16:05:01.271Z,96477.44
2023-03-26T16:07:43.369Z,96470.78
2023-03-26T16:10:25.299Z,96471.44
2023-03-26T16:13:35.747Z,96452.00
2023-03-26T16:16:24.007Z,96449.06
2023-03-26T16:19:36.279Z,96451.00
2023-03-26T16:22:07.410Z,96448.44
2023-03-26T16:24:39.373Z,96454.09
2023-03-26T16:27:28.948Z,96452.78
2023-03-26T16:30:29.039Z,96437.38
2023-03-26T16:33:08.851Z,96434.81
2023-03-26T16:36:04.687Z,96426.53
2023-03-26T16:38:54.140Z,96426.16
2023-03-26T16:41:27.309Z,96419.69
2023-03-26T16:44:15.928Z,96419.66
2023-03-26T16:47:00.700Z,96417.75
2023-03-26T16:49:45.852Z,96416.63
2023-03-26T16:52:35.291Z,96411.09
2023-03-26T16:55:12.329Z,96410.25
2023-03-26T16:57:52.435Z,96407.78
2023-03-26T17:00:33.882Z,96411.59
2023-03-26T17:03:18.749Z,96409.28
2023-03-26T17:06:21.453Z,96415.72
2023-03-26T17:09:01.078Z,96410.13
2023-03-26T17:11:42.941Z,96409.72
2023-03-26T17:14:30.080Z,96400.22
2023-03-26T17:17:36.575Z,96409.72
2023-03-26T17:20:19.270Z,96403.66
2023-03-26T17:22:56.300Z,96399.81
2023-03-26T17:25:36.021Z,96392.97
2023-03-26T17:28:23.957Z,96389.94
2023-03-26T17:31:02.119Z,96391.44
2023-03-26T17:33:33.156Z,96389.16
2023-03-26T17:36:30.238Z,96386.47
2023-03-26T17:39:17.651Z,96381.94
2023-03-26T17:42:01.076Z,96388.81
2023-03-26T17:44:43.563Z,96382.97
2023-03-26T17:47:31.800Z,96386.75
2023-03-26T17:50:05.159Z,96383.69
2023-03-26T17:52:54.068Z,96378.28
2023-03-26T17:55:27.275Z,96381.31
2023-03-26T17:58:00.229Z,96387.38
2023-03-26T18:00:32.503Z,96376.34
2023-03-26T18:03:07.586Z,96364.69
2023-03-26T18:05:39.279Z,96369.69
2023-03-26T18:08:42.931Z,96372.47
2023-03-26T18:11:34.696Z,96375.94
2023-03-26T18:14:37.346Z,96384.47
2023-03-26T18:17:06.985Z,96392.59
2023-03-26T18:19:47.984Z,96409.72
2023-03-26T18:22:20.748Z,96424.72
2023-03-26T18:24:50.211Z,96439.34
2023-03-26T18:27:20.663Z,96449.81
2023-03-26T18:30:01.698Z,96456.97
2023-03-26T18:32:32.058Z,96462.97
2023-03-26T18:35:02.314Z,96453.78
2023-03-26T18:37:33.695Z,96460.69
2023-03-26T18:40:08.031Z,96452.81
2023-03-26T18:42:36.735Z,96456.63
2023-03-26T18:45:14.394Z,96456.63
2023-03-26T18:47:43.361Z,96457.44
2023-03-26T18:50:18.590Z,96457.13
2023-03-26T18:52:46.371Z,96451.28
2023-03-26T18:55:15.050Z,96449.50
2023-03-26T18:57:43.477Z,96448.84
2023-03-26T19:00:22.969Z,96452.66
2023-03-26T19:03:03.537Z,96438.34
2023-03-26T19:05:34.449Z,96447.53
2023-03-26T19:08:06.080Z,96433.50
2023-03-26T19:10:34.625Z,96438.53
2023-03-26T19:13:03.069Z,96428.72
2023-03-26T19:15:35.330Z,96421.13
2023-03-26T19:18:08.406Z,96422.22
2023-03-26T19:20:41.879Z,96424.25
2023-03-26T19:23:14.569Z,96414.66
2023-03-26T19:25:45.505Z,96415.75
2023-03-26T19:28:20.183Z,96397.06
2023-03-26T19:30:55.059Z,96400.13
2023-03-26T19:33:24.591Z,96399.44
2023-03-26T19:36:00.024Z,96393.34
2023-03-26T19:38:38.759Z,96375.09
2023-03-26T19:41:06.545Z,96389.13
2023-03-26T19:43:34.404Z,96381.16
2023-03-26T19:46:03.559Z,96376.59
2023-03-26T19:51:18.813Z,96383.09
2023-03-26T19:51:25.211Z,96386.84
2023-03-26T19:53:54.508Z,96385.28
2023-03-26T19:56:23.068Z,96388.34
2023-03-26T19:58:51.214Z,96384.53
2023-03-26T20:01:24.992Z,96384.38
2023-03-26T20:03:56.854Z,96379.97
2023-03-26T20:06:34.482Z,96373.47
2023-03-26T20:09:10.939Z,96390.22
2023-03-26T20:11:38.942Z,96387.66
2023-03-26T20:14:13.091Z,96390.69
2023-03-26T20:16:44.547Z,96389.56
2023-03-26T20:19:13.480Z,96392.59
2023-03-26T20:21:41.885Z,96397.50
2023-03-26T20:24:12.585Z,96392.97
2023-03-26T20:26:40.598Z,96397.91
2023-03-26T20:29:08.800Z,96411.63
2023-03-26T20:31:36.469Z,96413.69
2023-03-26T20:34:14.858Z,96416.84
2023-03-26T20:36:42.752Z,96421.88
2023-03-26T20:39:10.372Z,96417.31
2023-03-26T20:41:46.080Z,96425.41
2023-03-26T20:44:16.913Z,96430.31
2023-03-26T20:46:47.865Z,96424.28
2023-03-26T20:49:17.526Z,96433.16
2023-03-26T20:51:46.008Z,96430.22
2023-03-26T20:54:16.445Z,96423.94
2023-03-26T20:56:44.634Z,96430.25
2023-03-26T20:59:18.124Z,96431.59
2023-03-26T21:01:45.826Z,96444.03
2023-03-26T21:04:14.142Z,96438.97
2023-03-26T21:06:44.596Z,96445.78
2023-03-26T21:09:14.526Z,96445.34
2023-03-26T21:11:54.207Z,96442.69
2023-03-26T21:14:27.813Z,96448.84
2023-03-26T21:16:56.106Z,96450.09
2023-03-26T21:19:24.442Z,96456.16
2023-03-26T21:22:03.262Z,96464.53
2023-03-26T21:24:47.813Z,96465.94
2023-03-26T21:27:24.675Z,96473.91
2023-03-26T21:29:53.345Z,96479.31
2023-03-26T21:32:22.254Z,96490.03
2023-03-26T21:34:58.724Z,96488.72
2023-03-26T21:37:31.805Z,96486.47
2023-03-26T21:40:00.049Z,96492.16
2023-03-26T21:42:28.290Z,96498.41
2023-03-26T21:44:56.380Z,96499.19
2023-03-26T21:47:24.559Z,96495.81
2023-03-26T21:49:52.671Z,96497.34
2023-03-26T21:52:20.860Z,96497.34
2023-03-26T21:54:50.811Z,96495.00
2023-03-26T21:57:39.006Z,96506.44
2023-03-26T22:00:09.062Z,96511.69
2023-03-26T22:02:51.292Z,96523.53
2023-03-26T22:05:23.356Z,96519.63
2023-03-26T22:07:55.963Z,96520.41
2023-03-26T22:10:24.897Z,96530.81
2023-03-26T22:12:53.165Z,96530.69
2023-03-26T22:15:22.501Z,96541.00
2023-03-26T22:17:50.300Z,96542.13
2023-03-26T22:20:18.141Z,96546.34
2023-03-26T22:22:45.815Z,96551.25
2023-03-26T22:25:13.454Z,96562.75
2023-03-26T22:27:44.163Z,96565.03
2023-03-26T22:30:13.372Z,96565.75
2023-03-26T22:32:41.684Z,96566.53
2023-03-26T22:35:09.816Z,96574.13
2023-03-26T22:37:37.600Z,96576.47
2023-03-26T22:40:06.720Z,96585.16
2023-03-26T22:42:34.465Z,96589.47
2023-03-26T22:45:06.781Z,96603.56
2023-03-26T22:47:34.617Z,96601.75
2023-03-26T22:50:04.244Z,96611.03
2023-03-26T22:52:31.841Z,96616.78
2023-03-26T22:54:59.541Z,96631.06
2023-03-26T22:57:27.427Z,96628.84
2023-03-26T22:59:55.013Z,96626.31
2023-03-26T23:02:25.504Z,96630.69
2023-03-26T23:04:53.272Z,96626.66
2023-03-26T23:07:21.390Z,96634.28
2023-03-26T23:09:50.154Z,96639.09
2023-03-26T23:12:17.631Z,96647.53
2023-03-26T23:14:45.195Z,96643.56
2023-03-26T23:17:12.699Z,96649.91
2023-03-26T23:19:43.165Z,96652.94
2023-03-26T23:22:10.792Z,96657.94
2023-03-26T23:24:38.357Z,96665.19
2023-03-26T23:27:06.045Z,96656.53
2023-03-26T23:29:33.643Z,96658.69
2023-03-26T23:32:01.193Z,96672.97
2023-03-26T23:34:29.013Z,96673.25
2023-03-26T23:36:58.078Z,96684.03
2023-03-26T23:39:25.629Z,96688.84
2023-03-26T23:41:53.218Z,96701.63
2023-03-26T23:44:21.023Z,96711.72
2023-03-26T23:46:49.201Z,96707.34
2023-03-26T23:49:16.737Z,96705.19
2023-03-26T23:51:44.383Z,96707.84
2023-03-26T23:54:13.321Z,96709.34
2023-03-26T23:56:40.989Z,96725.19
2023-03-26T23:59:08.598Z,96715.25
